Leopolda — IM4646 — position and weather

sailwx.info

Track history (hours):
 
Tides and Currents Weather Stations Pressure Air Temp Water Temp Dewpoint Dewpoint Depression Visibility Wind Speed Wind Dir Waves Ship Positions

Leopolda

Last reported at 2015-Aug-19 15:25 UTC. Time now 2015-Sep-02 04:28 UTC.
Position N 37°45' E 023°25'.
Warning: this ship's position is 13 days out of date.

Length 30 m.

Type: Pleasure craft. MMSI: 247207730.

Date/timePositionNaut miles runAvg speedWind from/ knotsBaromVisibWave heightAir tempDewpointWater temp
2015-Aug-19 15:25N 37°45' E 023°25'1415.9
2015-Aug-19 14:33N 37°40' E 023°42'61 8.8
2015-Aug-19 07:33N 37°27' E 024°57'1 0.6
2015-Aug-19 06:31N 37°27' E 024°57'0 0.0
2015-Aug-19 05:31N 37°27' E 024°57'0 0.0
2015-Aug-19 04:31N 37°27' E 024°57'0 0.0
2015-Aug-19 03:31N 37°27' E 024°57'0 0.0
2015-Aug-19 02:31N 37°27' E 024°57'0 0.0
2015-Aug-19 01:31N 37°27' E 024°57'0 0.0
2015-Aug-19 00:31N 37°27' E 024°57'0 0.0
2015-Aug-18 23:31N 37°27' E 024°57'0 0.0
2015-Aug-18 22:31N 37°27' E 024°57'0 0.0
2015-Aug-18 21:31N 37°27' E 024°57'0 0.0
2015-Aug-18 20:31N 37°27' E 024°57'0 0.0
2015-Aug-18 19:31N 37°27' E 024°57'0 0.0
2015-Aug-18 18:25N 37°27' E 024°57'0 0.0
2015-Aug-18 17:31N 37°27' E 024°57'0 0.0
2015-Aug-18 16:31N 37°27' E 024°57'0 0.5
2015-Aug-18 15:33N 37°26' E 024°57'1717.0
2015-Aug-18 14:33N 37°15' E 025°13'7 6.7
2015-Aug-18 13:29N 37°09' E 025°17'0 0.0
2015-Aug-18 12:29N 37°09' E 025°17'0 0.0
2015-Aug-18 11:32N 37°09' E 025°17'0 0.0
2015-Aug-18 10:32N 37°09' E 025°17'0 0.0
2015-Aug-18 09:32N 37°09' E 025°17'0 0.0
2015-Aug-18 08:32N 37°09' E 025°17'1 0.6
2015-Aug-18 07:33N 37°08' E 025°17'10 9.6
2015-Aug-18 06:33N 37°18' E 025°18'7 7.3
2015-Aug-18 05:32N 37°25' E 025°19'0 0.0
2015-Aug-18 04:32N 37°25' E 025°19'0 0.0
2015-Aug-18 04:11N 37°25' E 025°19'0 0.1
2015-Aug-18 04:08N 37°25' E 025°19'0 0.0
2015-Aug-18 03:32N 37°25' E 025°19'0 0.0
2015-Aug-18 02:32N 37°25' E 025°19'0 0.0
2015-Aug-18 01:32N 37°25' E 025°19'0 0.0
2015-Aug-18 00:32N 37°25' E 025°19'0 0.0
2015-Aug-17 23:32N 37°25' E 025°19'0 0.0
2015-Aug-17 22:32N 37°25' E 025°19'0 0.0
2015-Aug-17 21:29N 37°25' E 025°19'0 0.0
2015-Aug-17 20:32N 37°25' E 025°19'0 0.0
2015-Aug-17 19:26N 37°25' E 025°19'0 0.0
2015-Aug-17 17:14N 37°25' E 025°19'0 0.0
2015-Aug-17 16:32N 37°25' E 025°19'1 0.7
2015-Aug-17 15:32N 37°24' E 025°19'0 0.0
2015-Aug-17 14:32N 37°24' E 025°19'0 0.0
2015-Aug-17 13:32N 37°24' E 025°19'0 0.0
2015-Aug-17 12:32N 37°24' E 025°19'0 0.0
2015-Aug-17 11:32N 37°24' E 025°19'0 0.0
2015-Aug-17 10:32N 37°24' E 025°19'0 0.0
2015-Aug-17 09:32N 37°24' E 025°19'0 0.0
2015-Aug-17 08:29N 37°24' E 025°19'3 2.9
2015-Aug-17 07:33N 37°27' E 025°20'0 0.0
2015-Aug-17 06:33N 37°27' E 025°20'0 0.0
2015-Aug-17 05:33N 37°27' E 025°20'0 0.0
2015-Aug-17 04:33N 37°27' E 025°20'0 0.0
2015-Aug-17 03:27N 37°27' E 025°20'0 0.0
2015-Aug-17 02:30N 37°27' E 025°20'0 0.0
2015-Aug-17 01:30N 37°27' E 025°20'0 0.0
2015-Aug-17 00:33N 37°27' E 025°20'0 0.0
2015-Aug-16 23:33N 37°27' E 025°20'0 0.0
2015-Aug-16 22:33N 37°27' E 025°20'0 0.0
2015-Aug-16 21:33N 37°27' E 025°20'0 0.0
2015-Aug-16 20:33N 37°27' E 025°20'0 0.0
2015-Aug-16 19:33N 37°27' E 025°20'0 0.0
2015-Aug-16 18:30N 37°27' E 025°20'0 0.0
2015-Aug-16 17:33N 37°27' E 025°20'0 0.0
2015-Aug-16 16:33N 37°27' E 025°20'0 0.0
2015-Aug-16 15:33N 37°27' E 025°20'0 0.2
2015-Aug-16 14:33N 37°27' E 025°20'3 3.4
2015-Aug-16 13:33N 37°25' E 025°23'0 0.5
2015-Aug-16 12:31N 37°25' E 025°23'0 0.0
2015-Aug-16 11:25N 37°25' E 025°23'0 0.0
2015-Aug-16 10:28N 37°25' E 025°23'0 0.0
2015-Aug-16 09:31N 37°25' E 025°23'0 0.0
2015-Aug-16 08:28N 37°25' E 025°23'1 1.3
2015-Aug-16 07:31N 37°24' E 025°22'3 3.4
2015-Aug-16 06:33N 37°27' E 025°20'0 0.0
2015-Aug-16 05:33N 37°27' E 025°20'0 0.0
2015-Aug-16 04:33N 37°27' E 025°20'0 0.0
2015-Aug-16 03:33N 37°27' E 025°20'0 0.0
2015-Aug-16 02:30N 37°27' E 025°20'0 0.0
2015-Aug-16 01:33N 37°27' E 025°20'0 0.0
2015-Aug-16 00:33N 37°27' E 025°20'0 0.0
2015-Aug-15 23:33N 37°27' E 025°20'0 0.0
2015-Aug-15 22:33N 37°27' E 025°20'0 0.0
2015-Aug-15 21:33N 37°27' E 025°20'0 0.0
2015-Aug-15 20:33N 37°27' E 025°20'0 0.0
2015-Aug-15 19:33N 37°27' E 025°20'0 0.0
2015-Aug-15 18:33N 37°27' E 025°20'0 0.0
2015-Aug-15 17:30N 37°27' E 025°20'0 0.0
2015-Aug-15 16:33N 37°27' E 025°20'0 0.0
2015-Aug-15 15:33N 37°27' E 025°20'0 0.0
2015-Aug-15 14:33N 37°27' E 025°20'5 5.0
2015-Aug-15 13:33N 37°23' E 025°15'0 0.0
2015-Aug-15 12:33N 37°23' E 025°15'0 0.0
2015-Aug-15 11:33N 37°23' E 025°15'0 0.0
2015-Aug-15 10:30N 37°23' E 025°15'0 0.0
2015-Aug-15 09:33N 37°23' E 025°15'0 0.0
2015-Aug-15 08:32N 37°23' E 025°15'1 1.5
2015-Aug-15 07:33N 37°22' E 025°16'6 5.6
2015-Aug-15 06:32N 37°27' E 025°20'0 0.0
2015-Aug-15 05:32N 37°27' E 025°20'0 0.0
2015-Aug-15 04:32N 37°27' E 025°20'0 0.0
2015-Aug-15 03:32N 37°27' E 025°20'0 0.0
2015-Aug-15 02:32N 37°27' E 025°20'0 0.0
2015-Aug-15 01:32N 37°27' E 025°20'0 0.0
2015-Aug-15 00:32N 37°27' E 025°20'0 0.0
2015-Aug-14 23:32N 37°27' E 025°20'0 0.0
2015-Aug-14 22:32N 37°27' E 025°20'0 0.0
2015-Aug-14 21:32N 37°27' E 025°20'0 0.0
2015-Aug-14 20:32N 37°27' E 025°20'0 0.0
2015-Aug-14 19:29N 37°27' E 025°20'0 0.0
2015-Aug-14 18:32N 37°27' E 025°20'0 0.0
2015-Aug-14 17:32N 37°27' E 025°20'0 0.0
2015-Aug-14 16:32N 37°27' E 025°20'0 0.0
2015-Aug-14 15:33N 37°27' E 025°20'0 0.0
2015-Aug-14 14:32N 37°27' E 025°20'1 0.8
2015-Aug-14 13:33N 37°27' E 025°19'3 3.2
2015-Aug-14 12:33N 37°25' E 025°21'0 0.0
2015-Aug-14 11:33N 37°25' E 025°21'0 0.0
2015-Aug-14 10:33N 37°25' E 025°21'0 0.0
2015-Aug-14 09:33N 37°25' E 025°21'0 0.0
2015-Aug-14 08:32N 37°25' E 025°21'0 0.0
2015-Aug-14 07:23N 37°25' E 025°21'3 3.4
2015-Aug-14 06:33N 37°27' E 025°20'0 0.0
2015-Aug-14 05:32N 37°27' E 025°20'0 0.0
2015-Aug-14 04:32N 37°27' E 025°20'0 0.0
2015-Aug-14 03:32N 37°27' E 025°20'0 0.0
2015-Aug-14 02:32N 37°27' E 025°20'0 0.0
2015-Aug-14 01:32N 37°27' E 025°20'0 0.0
2015-Aug-14 00:32N 37°27' E 025°20'0 0.0
2015-Aug-13 23:32N 37°27' E 025°20'0 0.0
2015-Aug-13 22:32N 37°27' E 025°20'0 0.0
2015-Aug-13 21:29N 37°27' E 025°20'0 0.0
2015-Aug-13 20:32N 37°27' E 025°20'0 0.0
2015-Aug-13 19:29N 37°27' E 025°20'0 0.0
2015-Aug-13 18:32N 37°27' E 025°20'0 0.0
2015-Aug-13 17:32N 37°27' E 025°20'0 0.0
2015-Aug-13 16:32N 37°27' E 025°20'0 0.0
2015-Aug-13 15:32N 37°27' E 025°20'0 0.0
2015-Aug-13 14:32N 37°27' E 025°20'6 6.2
2015-Aug-13 13:33N 37°27' E 025°12'1312.9
2015-Aug-13 12:33N 37°23' E 024°57'9 1.7
2015-Aug-13 07:34N 37°24' E 024°46'73 1.9
2015-Aug-11 16:21N 37°50' E 023°19'  
Track history (hours):
 
Tides and Currents Weather Stations Pressure Air Temp Water Temp Dewpoint Dewpoint Depression Visibility Wind Speed Wind Dir Waves Ship Positions

Leopolda

Last reported at 2015-Aug-19 15:25 UTC. Time now 2015-Sep-02 04:28 UTC.
Position N 37°45' E 023°25'.
Warning: this ship's position is 13 days out of date.

Length 30 m.

Type: Pleasure craft. MMSI: 247207730.

Date/timePositionNaut miles runAvg speedWind from/ knotsBaromVisibWave heightAir tempDewpointWater temp
2015-Aug-19 15:25N 37°45' E 023°25'1415.9
2015-Aug-19 14:33N 37°40' E 023°42'61 8.8
2015-Aug-19 07:33N 37°27' E 024°57'1 0.6
2015-Aug-19 06:31N 37°27' E 024°57'0 0.0
2015-Aug-19 05:31N 37°27' E 024°57'0 0.0
2015-Aug-19 04:31N 37°27' E 024°57'0 0.0
2015-Aug-19 03:31N 37°27' E 024°57'0 0.0
2015-Aug-19 02:31N 37°27' E 024°57'0 0.0
2015-Aug-19 01:31N 37°27' E 024°57'0 0.0
2015-Aug-19 00:31N 37°27' E 024°57'0 0.0
2015-Aug-18 23:31N 37°27' E 024°57'0 0.0
2015-Aug-18 22:31N 37°27' E 024°57'0 0.0
2015-Aug-18 21:31N 37°27' E 024°57'0 0.0
2015-Aug-18 20:31N 37°27' E 024°57'0 0.0
2015-Aug-18 19:31N 37°27' E 024°57'0 0.0
2015-Aug-18 18:25N 37°27' E 024°57'0 0.0
2015-Aug-18 17:31N 37°27' E 024°57'0 0.0
2015-Aug-18 16:31N 37°27' E 024°57'0 0.5
2015-Aug-18 15:33N 37°26' E 024°57'1717.0
2015-Aug-18 14:33N 37°15' E 025°13'7 6.7
2015-Aug-18 13:29N 37°09' E 025°17'0 0.0
2015-Aug-18 12:29N 37°09' E 025°17'0 0.0
2015-Aug-18 11:32N 37°09' E 025°17'0 0.0
2015-Aug-18 10:32N 37°09' E 025°17'0 0.0
2015-Aug-18 09:32N 37°09' E 025°17'0 0.0
2015-Aug-18 08:32N 37°09' E 025°17'1 0.6
2015-Aug-18 07:33N 37°08' E 025°17'10 9.6
2015-Aug-18 06:33N 37°18' E 025°18'7 7.3
2015-Aug-18 05:32N 37°25' E 025°19'0 0.0
2015-Aug-18 04:32N 37°25' E 025°19'0 0.0
2015-Aug-18 04:11N 37°25' E 025°19'0 0.1
2015-Aug-18 04:08N 37°25' E 025°19'0 0.0
2015-Aug-18 03:32N 37°25' E 025°19'0 0.0
2015-Aug-18 02:32N 37°25' E 025°19'0 0.0
2015-Aug-18 01:32N 37°25' E 025°19'0 0.0
2015-Aug-18 00:32N 37°25' E 025°19'0 0.0
2015-Aug-17 23:32N 37°25' E 025°19'0 0.0
2015-Aug-17 22:32N 37°25' E 025°19'0 0.0
2015-Aug-17 21:29N 37°25' E 025°19'0 0.0
2015-Aug-17 20:32N 37°25' E 025°19'0 0.0
2015-Aug-17 19:26N 37°25' E 025°19'0 0.0
2015-Aug-17 17:14N 37°25' E 025°19'0 0.0
2015-Aug-17 16:32N 37°25' E 025°19'1 0.7
2015-Aug-17 15:32N 37°24' E 025°19'0 0.0
2015-Aug-17 14:32N 37°24' E 025°19'0 0.0
2015-Aug-17 13:32N 37°24' E 025°19'0 0.0
2015-Aug-17 12:32N 37°24' E 025°19'0 0.0
2015-Aug-17 11:32N 37°24' E 025°19'0 0.0
2015-Aug-17 10:32N 37°24' E 025°19'0 0.0
2015-Aug-17 09:32N 37°24' E 025°19'0 0.0
2015-Aug-17 08:29N 37°24' E 025°19'3 2.9
2015-Aug-17 07:33N 37°27' E 025°20'0 0.0
2015-Aug-17 06:33N 37°27' E 025°20'0 0.0
2015-Aug-17 05:33N 37°27' E 025°20'0 0.0
2015-Aug-17 04:33N 37°27' E 025°20'0 0.0
2015-Aug-17 03:27N 37°27' E 025°20'0 0.0
2015-Aug-17 02:30N 37°27' E 025°20'0 0.0
2015-Aug-17 01:30N 37°27' E 025°20'0 0.0
2015-Aug-17 00:33N 37°27' E 025°20'0 0.0
2015-Aug-16 23:33N 37°27' E 025°20'0 0.0
2015-Aug-16 22:33N 37°27' E 025°20'0 0.0
2015-Aug-16 21:33N 37°27' E 025°20'0 0.0
2015-Aug-16 20:33N 37°27' E 025°20'0 0.0
2015-Aug-16 19:33N 37°27' E 025°20'0 0.0
2015-Aug-16 18:30N 37°27' E 025°20'0 0.0
2015-Aug-16 17:33N 37°27' E 025°20'0 0.0
2015-Aug-16 16:33N 37°27' E 025°20'0 0.0
2015-Aug-16 15:33N 37°27' E 025°20'0 0.2
2015-Aug-16 14:33N 37°27' E 025°20'3 3.4
2015-Aug-16 13:33N 37°25' E 025°23'0 0.5
2015-Aug-16 12:31N 37°25' E 025°23'0 0.0
2015-Aug-16 11:25N 37°25' E 025°23'0 0.0
2015-Aug-16 10:28N 37°25' E 025°23'0 0.0
2015-Aug-16 09:31N 37°25' E 025°23'0 0.0
2015-Aug-16 08:28N 37°25' E 025°23'1 1.3
2015-Aug-16 07:31N 37°24' E 025°22'3 3.4
2015-Aug-16 06:33N 37°27' E 025°20'0 0.0
2015-Aug-16 05:33N 37°27' E 025°20'0 0.0
2015-Aug-16 04:33N 37°27' E 025°20'0 0.0
2015-Aug-16 03:33N 37°27' E 025°20'0 0.0
2015-Aug-16 02:30N 37°27' E 025°20'0 0.0
2015-Aug-16 01:33N 37°27' E 025°20'0 0.0
2015-Aug-16 00:33N 37°27' E 025°20'0 0.0
2015-Aug-15 23:33N 37°27' E 025°20'0 0.0
2015-Aug-15 22:33N 37°27' E 025°20'0 0.0
2015-Aug-15 21:33N 37°27' E 025°20'0 0.0
2015-Aug-15 20:33N 37°27' E 025°20'0 0.0
2015-Aug-15 19:33N 37°27' E 025°20'0 0.0
2015-Aug-15 18:33N 37°27' E 025°20'0 0.0
2015-Aug-15 17:30N 37°27' E 025°20'0 0.0
2015-Aug-15 16:33N 37°27' E 025°20'0 0.0
2015-Aug-15 15:33N 37°27' E 025°20'0 0.0
2015-Aug-15 14:33N 37°27' E 025°20'5 5.0
2015-Aug-15 13:33N 37°23' E 025°15'0 0.0
2015-Aug-15 12:33N 37°23' E 025°15'0 0.0
2015-Aug-15 11:33N 37°23' E 025°15'0 0.0
2015-Aug-15 10:30N 37°23' E 025°15'0 0.0
2015-Aug-15 09:33N 37°23' E 025°15'0 0.0
2015-Aug-15 08:32N 37°23' E 025°15'1 1.5
2015-Aug-15 07:33N 37°22' E 025°16'6 5.6
2015-Aug-15 06:32N 37°27' E 025°20'0 0.0
2015-Aug-15 05:32N 37°27' E 025°20'0 0.0
2015-Aug-15 04:32N 37°27' E 025°20'0 0.0
2015-Aug-15 03:32N 37°27' E 025°20'0 0.0
2015-Aug-15 02:32N 37°27' E 025°20'0 0.0
2015-Aug-15 01:32N 37°27' E 025°20'0 0.0
2015-Aug-15 00:32N 37°27' E 025°20'0 0.0
2015-Aug-14 23:32N 37°27' E 025°20'0 0.0
2015-Aug-14 22:32N 37°27' E 025°20'0 0.0
2015-Aug-14 21:32N 37°27' E 025°20'0 0.0
2015-Aug-14 20:32N 37°27' E 025°20'0 0.0
2015-Aug-14 19:29N 37°27' E 025°20'0 0.0
2015-Aug-14 18:32N 37°27' E 025°20'0 0.0
2015-Aug-14 17:32N 37°27' E 025°20'0 0.0
2015-Aug-14 16:32N 37°27' E 025°20'0 0.0
2015-Aug-14 15:33N 37°27' E 025°20'0 0.0
2015-Aug-14 14:32N 37°27' E 025°20'1 0.8
2015-Aug-14 13:33N 37°27' E 025°19'3 3.2
2015-Aug-14 12:33N 37°25' E 025°21'0 0.0
2015-Aug-14 11:33N 37°25' E 025°21'0 0.0
2015-Aug-14 10:33N 37°25' E 025°21'0 0.0
2015-Aug-14 09:33N 37°25' E 025°21'0 0.0
2015-Aug-14 08:32N 37°25' E 025°21'0 0.0
2015-Aug-14 07:23N 37°25' E 025°21'3 3.4
2015-Aug-14 06:33N 37°27' E 025°20'0 0.0
2015-Aug-14 05:32N 37°27' E 025°20'0 0.0
2015-Aug-14 04:32N 37°27' E 025°20'0 0.0
2015-Aug-14 03:32N 37°27' E 025°20'0 0.0
2015-Aug-14 02:32N 37°27' E 025°20'0 0.0
2015-Aug-14 01:32N 37°27' E 025°20'0 0.0
2015-Aug-14 00:32N 37°27' E 025°20'0 0.0
2015-Aug-13 23:32N 37°27' E 025°20'0 0.0
2015-Aug-13 22:32N 37°27' E 025°20'0 0.0
2015-Aug-13 21:29N 37°27' E 025°20'0 0.0
2015-Aug-13 20:32N 37°27' E 025°20'0 0.0
2015-Aug-13 19:29N 37°27' E 025°20'0 0.0
2015-Aug-13 18:32N 37°27' E 025°20'0 0.0
2015-Aug-13 17:32N 37°27' E 025°20'0 0.0
2015-Aug-13 16:32N 37°27' E 025°20'0 0.0
2015-Aug-13 15:32N 37°27' E 025°20'0 0.0
2015-Aug-13 14:32N 37°27' E 025°20'6 6.2
2015-Aug-13 13:33N 37°27' E 025°12'1312.9
2015-Aug-13 12:33N 37°23' E 024°57'9 1.7
2015-Aug-13 07:34N 37°24' E 024°46'73 1.9
2015-Aug-11 16:21N 37°50' E 023°19'  

Dump ship's entire track history